sensor_id;sensor_type;location;lat;lon;timestamp;P1;durP1;ratioP1;P2;durP2;ratioP2
15043;SDS011;7619;48.562;8.910;2024-03-02T00:01:44;6.90;;;5.17;;
15043;SDS011;7619;48.562;8.910;2024-03-02T00:04:12;7.03;;;4.97;;
15043;SDS011;7619;48.562;8.910;2024-03-02T00:06:40;8.23;;;5.37;;
15043;SDS011;7619;48.562;8.910;2024-03-02T00:09:09;9.13;;;5.80;;
15043;SDS011;7619;48.562;8.910;2024-03-02T00:11:39;7.13;;;5.30;;
15043;SDS011;7619;48.562;8.910;2024-03-02T00:14:07;6.50;;;5.37;;
15043;SDS011;7619;48.562;8.910;2024-03-02T00:16:35;8.33;;;5.17;;
15043;SDS011;7619;48.562;8.910;2024-03-02T00:19:03;10.63;;;5.97;;
15043;SDS011;7619;48.562;8.910;2024-03-02T00:21:33;9.40;;;6.83;;
15043;SDS011;7619;48.562;8.910;2024-03-02T00:24:01;9.30;;;5.90;;
15043;SDS011;7619;48.562;8.910;2024-03-02T00:26:31;7.93;;;6.27;;
15043;SDS011;7619;48.562;8.910;2024-03-02T00:28:59;6.83;;;5.33;;
15043;SDS011;7619;48.562;8.910;2024-03-02T00:31:27;6.43;;;5.13;;
15043;SDS011;7619;48.562;8.910;2024-03-02T00:33:55;7.03;;;5.10;;
15043;SDS011;7619;48.562;8.910;2024-03-02T00:36:25;6.53;;;5.00;;
15043;SDS011;7619;48.562;8.910;2024-03-02T00:38:54;5.40;;;4.90;;
15043;SDS011;7619;48.562;8.910;2024-03-02T00:41:23;9.93;;;6.07;;
15043;SDS011;7619;48.562;8.910;2024-03-02T00:43:58;5.97;;;5.30;;
15043;SDS011;7619;48.562;8.910;2024-03-02T00:46:27;7.60;;;5.43;;
15043;SDS011;7619;48.562;8.910;2024-03-02T00:48:56;7.20;;;5.37;;
15043;SDS011;7619;48.562;8.910;2024-03-02T00:51:26;9.40;;;5.60;;
15043;SDS011;7619;48.562;8.910;2024-03-02T00:53:55;8.57;;;5.77;;
15043;SDS011;7619;48.562;8.910;2024-03-02T00:56:23;9.93;;;6.57;;
15043;SDS011;7619;48.562;8.910;2024-03-02T00:58:51;10.33;;;7.00;;
15043;SDS011;7619;48.562;8.910;2024-03-02T01:01:20;8.73;;;6.17;;
15043;SDS011;7619;48.562;8.910;2024-03-02T01:03:48;6.87;;;5.60;;
15043;SDS011;7619;48.562;8.910;2024-03-02T01:06:16;10.13;;;5.67;;
15043;SDS011;7619;48.562;8.910;2024-03-02T01:08:45;7.20;;;5.30;;
15043;SDS011;7619;48.562;8.910;2024-03-02T01:11:15;13.00;;;5.50;;
15043;SDS011;7619;48.562;8.910;2024-03-02T01:13:43;6.20;;;5.00;;
15043;SDS011;7619;48.562;8.910;2024-03-02T01:16:11;10.13;;;5.83;;
15043;SDS011;7619;48.562;8.910;2024-03-02T01:18:39;8.57;;;6.30;;
15043;SDS011;7619;48.562;8.910;2024-03-02T01:21:07;8.40;;;6.43;;
15043;SDS011;7619;48.562;8.910;2024-03-02T01:23:35;9.20;;;6.13;;
15043;SDS011;7619;48.562;8.910;2024-03-02T01:26:03;8.60;;;6.73;;
15043;SDS011;7619;48.562;8.910;2024-03-02T01:28:32;8.40;;;6.90;;
15043;SDS011;7619;48.562;8.910;2024-03-02T01:31:00;7.00;;;5.70;;
15043;SDS011;7619;48.562;8.910;2024-03-02T01:33:28;6.97;;;5.40;;
15043;SDS011;7619;48.562;8.910;2024-03-02T01:35:56;9.17;;;6.57;;
15043;SDS011;7619;48.562;8.910;2024-03-02T01:38:24;7.67;;;5.73;;
15043;SDS011;7619;48.562;8.910;2024-03-02T01:40:52;7.23;;;5.37;;
15043;SDS011;7619;48.562;8.910;2024-03-02T01:43:21;6.80;;;5.20;;
15043;SDS011;7619;48.562;8.910;2024-03-02T01:45:49;9.37;;;5.93;;
15043;SDS011;7619;48.562;8.910;2024-03-02T01:48:17;9.07;;;6.57;;
15043;SDS011;7619;48.562;8.910;2024-03-02T01:50:46;7.77;;;5.80;;
15043;SDS011;7619;48.562;8.910;2024-03-02T01:53:14;7.60;;;5.87;;
15043;SDS011;7619;48.562;8.910;2024-03-02T01:55:42;6.60;;;5.70;;
15043;SDS011;7619;48.562;8.910;2024-03-02T01:58:10;10.20;;;5.80;;
15043;SDS011;7619;48.562;8.910;2024-03-02T02:00:38;8.77;;;6.73;;
15043;SDS011;7619;48.562;8.910;2024-03-02T02:03:06;10.13;;;6.07;;
15043;SDS011;7619;48.562;8.910;2024-03-02T02:05:34;8.43;;;6.33;;
15043;SDS011;7619;48.562;8.910;2024-03-02T02:08:02;8.30;;;5.93;;
15043;SDS011;7619;48.562;8.910;2024-03-02T02:10:30;6.00;;;5.40;;
15043;SDS011;7619;48.562;8.910;2024-03-02T02:12:58;8.33;;;5.80;;
15043;SDS011;7619;48.562;8.910;2024-03-02T02:15:27;5.23;;;4.63;;
15043;SDS011;7619;48.562;8.910;2024-03-02T02:17:55;7.33;;;5.37;;
15043;SDS011;7619;48.562;8.910;2024-03-02T02:20:24;10.37;;;5.53;;
15043;SDS011;7619;48.562;8.910;2024-03-02T02:22:56;6.67;;;5.27;;
15043;SDS011;7619;48.562;8.910;2024-03-02T02:25:24;6.53;;;5.17;;
15043;SDS011;7619;48.562;8.910;2024-03-02T02:27:52;7.73;;;5.70;;
15043;SDS011;7619;48.562;8.910;2024-03-02T02:30:20;7.87;;;6.03;;
15043;SDS011;7619;48.562;8.910;2024-03-02T02:32:48;7.20;;;5.67;;
15043;SDS011;7619;48.562;8.910;2024-03-02T02:35:17;9.00;;;6.23;;
15043;SDS011;7619;48.562;8.910;2024-03-02T02:37:45;11.90;;;5.73;;
15043;SDS011;7619;48.562;8.910;2024-03-02T02:40:13;9.93;;;6.87;;
15043;SDS011;7619;48.562;8.910;2024-03-02T02:42:41;11.80;;;6.30;;
15043;SDS011;7619;48.562;8.910;2024-03-02T02:45:10;8.03;;;5.83;;
15043;SDS011;7619;48.562;8.910;2024-03-02T02:47:39;8.80;;;6.17;;
15043;SDS011;7619;48.562;8.910;2024-03-02T02:50:08;12.37;;;6.77;;
15043;SDS011;7619;48.562;8.910;2024-03-02T02:52:37;8.67;;;5.93;;
15043;SDS011;7619;48.562;8.910;2024-03-02T02:55:08;8.57;;;6.27;;
15043;SDS011;7619;48.562;8.910;2024-03-02T02:57:37;12.97;;;6.73;;
15043;SDS011;7619;48.562;8.910;2024-03-02T03:00:07;10.67;;;6.00;;
15043;SDS011;7619;48.562;8.910;2024-03-02T03:02:37;7.87;;;5.93;;
15043;SDS011;7619;48.562;8.910;2024-03-02T03:05:07;7.73;;;6.07;;
15043;SDS011;7619;48.562;8.910;2024-03-02T03:07:35;6.80;;;5.97;;
15043;SDS011;7619;48.562;8.910;2024-03-02T03:10:04;6.87;;;5.57;;
15043;SDS011;7619;48.562;8.910;2024-03-02T03:12:33;11.20;;;5.53;;
15043;SDS011;7619;48.562;8.910;2024-03-02T03:15:01;9.33;;;5.93;;
15043;SDS011;7619;48.562;8.910;2024-03-02T03:17:31;7.50;;;5.67;;
15043;SDS011;7619;48.562;8.910;2024-03-02T03:19:59;9.30;;;6.03;;
15043;SDS011;7619;48.562;8.910;2024-03-02T03:22:27;8.53;;;6.50;;
15043;SDS011;7619;48.562;8.910;2024-03-02T03:24:55;8.30;;;5.97;;
15043;SDS011;7619;48.562;8.910;2024-03-02T03:27:23;10.73;;;6.00;;
15043;SDS011;7619;48.562;8.910;2024-03-02T03:29:51;10.53;;;6.70;;
15043;SDS011;7619;48.562;8.910;2024-03-02T03:32:19;8.83;;;6.40;;
15043;SDS011;7619;48.562;8.910;2024-03-02T03:34:47;9.37;;;6.00;;
15043;SDS011;7619;48.562;8.910;2024-03-02T03:37:15;6.83;;;5.67;;
15043;SDS011;7619;48.562;8.910;2024-03-02T03:39:44;9.97;;;6.23;;
15043;SDS011;7619;48.562;8.910;2024-03-02T03:42:12;9.37;;;6.13;;
15043;SDS011;7619;48.562;8.910;2024-03-02T03:44:40;10.53;;;5.60;;
15043;SDS011;7619;48.562;8.910;2024-03-02T03:47:08;7.43;;;5.80;;
15043;SDS011;7619;48.562;8.910;2024-03-02T03:49:36;8.87;;;6.53;;
15043;SDS011;7619;48.562;8.910;2024-03-02T03:52:05;8.93;;;6.30;;
15043;SDS011;7619;48.562;8.910;2024-03-02T03:54:32;7.53;;;6.13;;
15043;SDS011;7619;48.562;8.910;2024-03-02T03:57:01;7.90;;;5.93;;
15043;SDS011;7619;48.562;8.910;2024-03-02T03:59:29;9.40;;;6.43;;
15043;SDS011;7619;48.562;8.910;2024-03-02T04:01:57;7.43;;;5.87;;
15043;SDS011;7619;48.562;8.910;2024-03-02T04:04:25;9.90;;;5.83;;
15043;SDS011;7619;48.562;8.910;2024-03-02T04:06:53;7.47;;;5.50;;
15043;SDS011;7619;48.562;8.910;2024-03-02T04:09:22;8.43;;;6.07;;
15043;SDS011;7619;48.562;8.910;2024-03-02T04:11:50;8.93;;;6.33;;
15043;SDS011;7619;48.562;8.910;2024-03-02T04:14:18;11.03;;;7.33;;
15043;SDS011;7619;48.562;8.910;2024-03-02T04:16:46;8.83;;;6.90;;
15043;SDS011;7619;48.562;8.910;2024-03-02T04:19:14;10.17;;;6.67;;
15043;SDS011;7619;48.562;8.910;2024-03-02T04:21:42;9.40;;;6.53;;
15043;SDS011;7619;48.562;8.910;2024-03-02T04:24:10;7.83;;;5.97;;
15043;SDS011;7619;48.562;8.910;2024-03-02T04:26:38;10.33;;;7.33;;
15043;SDS011;7619;48.562;8.910;2024-03-02T04:29:06;9.70;;;6.63;;
15043;SDS011;7619;48.562;8.910;2024-03-02T04:31:34;9.53;;;5.93;;
15043;SDS011;7619;48.562;8.910;2024-03-02T04:34:02;8.73;;;6.50;;
15043;SDS011;7619;48.562;8.910;2024-03-02T04:36:30;7.00;;;5.63;;
15043;SDS011;7619;48.562;8.910;2024-03-02T04:38:58;6.90;;;5.70;;
15043;SDS011;7619;48.562;8.910;2024-03-02T04:41:26;8.57;;;6.43;;
15043;SDS011;7619;48.562;8.910;2024-03-02T04:43:54;8.50;;;6.10;;
15043;SDS011;7619;48.562;8.910;2024-03-02T04:46:22;9.13;;;6.27;;
15043;SDS011;7619;48.562;8.910;2024-03-02T04:48:51;7.90;;;6.27;;
15043;SDS011;7619;48.562;8.910;2024-03-02T04:51:21;9.40;;;6.43;;
15043;SDS011;7619;48.562;8.910;2024-03-02T04:53:49;9.20;;;6.17;;
15043;SDS011;7619;48.562;8.910;2024-03-02T04:56:17;9.90;;;7.17;;
15043;SDS011;7619;48.562;8.910;2024-03-02T04:58:55;12.90;;;6.27;;
15043;SDS011;7619;48.562;8.910;2024-03-02T05:01:23;7.93;;;6.30;;
15043;SDS011;7619;48.562;8.910;2024-03-02T05:03:51;8.50;;;6.20;;
15043;SDS011;7619;48.562;8.910;2024-03-02T05:06:19;6.90;;;6.13;;
15043;SDS011;7619;48.562;8.910;2024-03-02T05:08:47;9.13;;;6.83;;
15043;SDS011;7619;48.562;8.910;2024-03-02T05:11:15;9.17;;;6.40;;
15043;SDS011;7619;48.562;8.910;2024-03-02T05:13:57;8.90;;;6.23;;
15043;SDS011;7619;48.562;8.910;2024-03-02T05:16:25;6.93;;;6.10;;
15043;SDS011;7619;48.562;8.910;2024-03-02T05:18:53;10.13;;;6.10;;
15043;SDS011;7619;48.562;8.910;2024-03-02T05:21:22;9.23;;;6.33;;
15043;SDS011;7619;48.562;8.910;2024-03-02T05:23:50;9.17;;;6.20;;
15043;SDS011;7619;48.562;8.910;2024-03-02T05:26:18;8.30;;;6.03;;
15043;SDS011;7619;48.562;8.910;2024-03-02T05:28:46;9.37;;;6.90;;
15043;SDS011;7619;48.562;8.910;2024-03-02T05:31:15;9.80;;;7.70;;
15043;SDS011;7619;48.562;8.910;2024-03-02T05:33:43;8.00;;;7.20;;
15043;SDS011;7619;48.562;8.910;2024-03-02T05:36:11;8.80;;;6.83;;
15043;SDS011;7619;48.562;8.910;2024-03-02T05:38:39;9.30;;;7.07;;
15043;SDS011;7619;48.562;8.910;2024-03-02T05:41:08;9.83;;;7.23;;
15043;SDS011;7619;48.562;8.910;2024-03-02T05:43:35;9.60;;;7.07;;
15043;SDS011;7619;48.562;8.910;2024-03-02T05:46:03;8.53;;;6.30;;
15043;SDS011;7619;48.562;8.910;2024-03-02T05:48:31;8.80;;;6.47;;
15043;SDS011;7619;48.562;8.910;2024-03-02T05:50:59;7.63;;;6.23;;
15043;SDS011;7619;48.562;8.910;2024-03-02T05:53:27;7.77;;;6.10;;
15043;SDS011;7619;48.562;8.910;2024-03-02T05:55:55;8.87;;;6.07;;
15043;SDS011;7619;48.562;8.910;2024-03-02T05:58:23;8.27;;;6.60;;
15043;SDS011;7619;48.562;8.910;2024-03-02T06:00:56;11.23;;;6.60;;
15043;SDS011;7619;48.562;8.910;2024-03-02T06:03:24;11.73;;;6.37;;
15043;SDS011;7619;48.562;8.910;2024-03-02T06:05:53;10.20;;;7.20;;
15043;SDS011;7619;48.562;8.910;2024-03-02T06:08:20;8.03;;;6.10;;
15043;SDS011;7619;48.562;8.910;2024-03-02T06:10:49;9.20;;;7.00;;
15043;SDS011;7619;48.562;8.910;2024-03-02T06:13:17;11.77;;;7.90;;
15043;SDS011;7619;48.562;8.910;2024-03-02T06:15:45;8.57;;;6.87;;
15043;SDS011;7619;48.562;8.910;2024-03-02T06:18:13;11.27;;;7.00;;
15043;SDS011;7619;48.562;8.910;2024-03-02T06:20:40;10.40;;;7.20;;
15043;SDS011;7619;48.562;8.910;2024-03-02T06:23:09;10.53;;;7.17;;
15043;SDS011;7619;48.562;8.910;2024-03-02T06:25:37;10.23;;;7.67;;
15043;SDS011;7619;48.562;8.910;2024-03-02T06:28:06;8.87;;;6.40;;
15043;SDS011;7619;48.562;8.910;2024-03-02T06:30:34;13.13;;;8.10;;
15043;SDS011;7619;48.562;8.910;2024-03-02T06:33:02;11.33;;;7.43;;
15043;SDS011;7619;48.562;8.910;2024-03-02T06:35:30;9.67;;;6.83;;
15043;SDS011;7619;48.562;8.910;2024-03-02T06:37:58;9.20;;;6.37;;
15043;SDS011;7619;48.562;8.910;2024-03-02T06:40:26;9.33;;;6.43;;
15043;SDS011;7619;48.562;8.910;2024-03-02T06:42:54;10.70;;;8.13;;
15043;SDS011;7619;48.562;8.910;2024-03-02T06:45:22;10.40;;;7.83;;
15043;SDS011;7619;48.562;8.910;2024-03-02T06:47:50;12.30;;;7.93;;
15043;SDS011;7619;48.562;8.910;2024-03-02T06:50:18;11.23;;;7.87;;
15043;SDS011;7619;48.562;8.910;2024-03-02T06:52:46;11.53;;;7.77;;
15043;SDS011;7619;48.562;8.910;2024-03-02T06:55:14;14.07;;;7.90;;
15043;SDS011;7619;48.562;8.910;2024-03-02T06:57:42;13.30;;;8.93;;
15043;SDS011;7619;48.562;8.910;2024-03-02T07:00:12;14.93;;;9.23;;
15043;SDS011;7619;48.562;8.910;2024-03-02T07:02:40;13.27;;;9.93;;
15043;SDS011;7619;48.562;8.910;2024-03-02T07:05:09;12.87;;;9.17;;
15043;SDS011;7619;48.562;8.910;2024-03-02T07:07:37;12.37;;;8.60;;
15043;SDS011;7619;48.562;8.910;2024-03-02T07:10:06;13.77;;;8.40;;
15043;SDS011;7619;48.562;8.910;2024-03-02T07:12:35;10.63;;;8.73;;
15043;SDS011;7619;48.562;8.910;2024-03-02T07:15:04;13.77;;;9.67;;
15043;SDS011;7619;48.562;8.910;2024-03-02T07:17:40;14.40;;;10.83;;
15043;SDS011;7619;48.562;8.910;2024-03-02T07:20:09;13.57;;;9.87;;
15043;SDS011;7619;48.562;8.910;2024-03-02T07:22:39;13.13;;;8.27;;
15043;SDS011;7619;48.562;8.910;2024-03-02T07:25:07;12.30;;;9.73;;
15043;SDS011;7619;48.562;8.910;2024-03-02T07:27:35;15.47;;;9.37;;
15043;SDS011;7619;48.562;8.910;2024-03-02T07:30:03;14.47;;;9.17;;
15043;SDS011;7619;48.562;8.910;2024-03-02T07:32:31;13.37;;;9.63;;
15043;SDS011;7619;48.562;8.910;2024-03-02T07:34:59;16.53;;;10.40;;
15043;SDS011;7619;48.562;8.910;2024-03-02T07:37:30;15.20;;;10.33;;
15043;SDS011;7619;48.562;8.910;2024-03-02T07:39:58;14.77;;;9.20;;
15043;SDS011;7619;48.562;8.910;2024-03-02T07:42:26;15.37;;;10.27;;
15043;SDS011;7619;48.562;8.910;2024-03-02T07:44:54;14.43;;;10.33;;
15043;SDS011;7619;48.562;8.910;2024-03-02T07:47:22;18.00;;;11.93;;
15043;SDS011;7619;48.562;8.910;2024-03-02T07:49:50;22.70;;;12.43;;
15043;SDS011;7619;48.562;8.910;2024-03-02T07:52:18;20.80;;;12.13;;
15043;SDS011;7619;48.562;8.910;2024-03-02T07:54:47;24.27;;;12.67;;
15043;SDS011;7619;48.562;8.910;2024-03-02T07:57:14;16.53;;;11.00;;
15043;SDS011;7619;48.562;8.910;2024-03-02T07:59:43;16.77;;;10.70;;
15043;SDS011;7619;48.562;8.910;2024-03-02T08:02:11;19.20;;;10.77;;
15043;SDS011;7619;48.562;8.910;2024-03-02T08:04:39;22.07;;;14.20;;
15043;SDS011;7619;48.562;8.910;2024-03-02T08:07:08;22.17;;;17.07;;
15043;SDS011;7619;48.562;8.910;2024-03-02T08:09:36;29.77;;;22.27;;
15043;SDS011;7619;48.562;8.910;2024-03-02T08:12:05;24.77;;;18.47;;
15043;SDS011;7619;48.562;8.910;2024-03-02T08:14:33;19.90;;;14.63;;
15043;SDS011;7619;48.562;8.910;2024-03-02T08:17:01;23.00;;;17.57;;
15043;SDS011;7619;48.562;8.910;2024-03-02T08:19:29;20.10;;;15.43;;
15043;SDS011;7619;48.562;8.910;2024-03-02T08:21:57;14.03;;;11.73;;
15043;SDS011;7619;48.562;8.910;2024-03-02T08:24:26;12.83;;;9.47;;
15043;SDS011;7619;48.562;8.910;2024-03-02T08:26:54;11.20;;;8.07;;
15043;SDS011;7619;48.562;8.910;2024-03-02T08:29:22;7.90;;;7.10;;
15043;SDS011;7619;48.562;8.910;2024-03-02T08:31:50;8.63;;;7.10;;
15043;SDS011;7619;48.562;8.910;2024-03-02T08:34:18;8.50;;;6.90;;
15043;SDS011;7619;48.562;8.910;2024-03-02T08:36:46;7.97;;;7.13;;
15043;SDS011;7619;48.562;8.910;2024-03-02T08:39:14;9.43;;;7.07;;
15043;SDS011;7619;48.562;8.910;2024-03-02T08:41:42;9.13;;;7.23;;
15043;SDS011;7619;48.562;8.910;2024-03-02T08:44:10;6.40;;;5.47;;
15043;SDS011;7619;48.562;8.910;2024-03-02T08:46:39;8.13;;;6.00;;
15043;SDS011;7619;48.562;8.910;2024-03-02T08:49:07;7.10;;;5.97;;
15043;SDS011;7619;48.562;8.910;2024-03-02T08:51:35;8.87;;;6.60;;
15043;SDS011;7619;48.562;8.910;2024-03-02T08:54:03;10.50;;;8.30;;
15043;SDS011;7619;48.562;8.910;2024-03-02T08:56:31;10.70;;;8.00;;
15043;SDS011;7619;48.562;8.910;2024-03-02T08:58:59;9.00;;;6.97;;
15043;SDS011;7619;48.562;8.910;2024-03-02T09:01:27;9.40;;;7.50;;
15043;SDS011;7619;48.562;8.910;2024-03-02T09:03:55;11.53;;;6.93;;
15043;SDS011;7619;48.562;8.910;2024-03-02T09:06:23;7.57;;;6.23;;
15043;SDS011;7619;48.562;8.910;2024-03-02T09:08:51;9.13;;;6.67;;
15043;SDS011;7619;48.562;8.910;2024-03-02T09:11:19;7.50;;;6.00;;
15043;SDS011;7619;48.562;8.910;2024-03-02T09:13:47;22.07;;;15.40;;
15043;SDS011;7619;48.562;8.910;2024-03-02T09:16:15;9.00;;;6.30;;
15043;SDS011;7619;48.562;8.910;2024-03-02T09:18:44;7.93;;;6.30;;
15043;SDS011;7619;48.562;8.910;2024-03-02T09:21:12;6.03;;;5.43;;
15043;SDS011;7619;48.562;8.910;2024-03-02T09:23:40;6.20;;;5.37;;
15043;SDS011;7619;48.562;8.910;2024-03-02T09:26:08;7.63;;;4.97;;
15043;SDS011;7619;48.562;8.910;2024-03-02T09:28:36;6.63;;;5.03;;
15043;SDS011;7619;48.562;8.910;2024-03-02T09:31:04;4.90;;;4.40;;
15043;SDS011;7619;48.562;8.910;2024-03-02T09:33:32;5.67;;;4.87;;
15043;SDS011;7619;48.562;8.910;2024-03-02T09:36:01;5.40;;;4.50;;
15043;SDS011;7619;48.562;8.910;2024-03-02T09:38:30;6.37;;;4.73;;
15043;SDS011;7619;48.562;8.910;2024-03-02T09:40:59;5.67;;;4.20;;
15043;SDS011;7619;48.562;8.910;2024-03-02T09:43:27;5.70;;;4.60;;
15043;SDS011;7619;48.562;8.910;2024-03-02T09:45:55;5.67;;;4.30;;
15043;SDS011;7619;48.562;8.910;2024-03-02T09:48:26;5.37;;;4.23;;
15043;SDS011;7619;48.562;8.910;2024-03-02T09:50:55;7.07;;;4.27;;
15043;SDS011;7619;48.562;8.910;2024-03-02T09:53:24;5.27;;;4.40;;
15043;SDS011;7619;48.562;8.910;2024-03-02T09:55:52;4.97;;;4.23;;
15043;SDS011;7619;48.562;8.910;2024-03-02T09:58:21;4.40;;;4.00;;
15043;SDS011;7619;48.562;8.910;2024-03-02T10:00:49;5.33;;;4.37;;
15043;SDS011;7619;48.562;8.910;2024-03-02T10:03:17;4.17;;;3.77;;
15043;SDS011;7619;48.562;8.910;2024-03-02T10:05:46;4.23;;;3.70;;
15043;SDS011;7619;48.562;8.910;2024-03-02T10:08:14;5.10;;;4.50;;
15043;SDS011;7619;48.562;8.910;2024-03-02T10:10:42;6.00;;;4.37;;
15043;SDS011;7619;48.562;8.910;2024-03-02T10:13:11;4.13;;;3.60;;
15043;SDS011;7619;48.562;8.910;2024-03-02T10:15:40;8.97;;;5.80;;
15043;SDS011;7619;48.562;8.910;2024-03-02T10:18:09;5.37;;;3.93;;
15043;SDS011;7619;48.562;8.910;2024-03-02T10:20:38;7.37;;;4.10;;
15043;SDS011;7619;48.562;8.910;2024-03-02T10:23:12;4.40;;;3.73;;
15043;SDS011;7619;48.562;8.910;2024-03-02T10:25:40;4.40;;;3.30;;
15043;SDS011;7619;48.562;8.910;2024-03-02T10:28:09;4.57;;;3.47;;
15043;SDS011;7619;48.562;8.910;2024-03-02T10:30:37;4.30;;;3.03;;
15043;SDS011;7619;48.562;8.910;2024-03-02T10:33:05;3.40;;;2.90;;
15043;SDS011;7619;48.562;8.910;2024-03-02T10:35:34;3.60;;;3.23;;
15043;SDS011;7619;48.562;8.910;2024-03-02T10:38:04;3.90;;;2.83;;
15043;SDS011;7619;48.562;8.910;2024-03-02T10:40:33;3.33;;;3.00;;
15043;SDS011;7619;48.562;8.910;2024-03-02T10:43:01;3.97;;;2.90;;
15043;SDS011;7619;48.562;8.910;2024-03-02T10:45:32;3.03;;;2.73;;
15043;SDS011;7619;48.562;8.910;2024-03-02T10:48:00;2.27;;;2.00;;
15043;SDS011;7619;48.562;8.910;2024-03-02T10:50:29;2.97;;;2.70;;
15043;SDS011;7619;48.562;8.910;2024-03-02T10:52:57;3.43;;;2.67;;
15043;SDS011;7619;48.562;8.910;2024-03-02T10:55:25;3.23;;;2.60;;
15043;SDS011;7619;48.562;8.910;2024-03-02T10:57:54;3.97;;;2.90;;
15043;SDS011;7619;48.562;8.910;2024-03-02T11:00:24;3.00;;;1.97;;
15043;SDS011;7619;48.562;8.910;2024-03-02T11:02:56;4.77;;;2.30;;
15043;SDS011;7619;48.562;8.910;2024-03-02T11:05:26;2.63;;;2.10;;
15043;SDS011;7619;48.562;8.910;2024-03-02T11:07:56;2.00;;;1.80;;
15043;SDS011;7619;48.562;8.910;2024-03-02T11:10:25;2.87;;;2.27;;
15043;SDS011;7619;48.562;8.910;2024-03-02T11:12:55;2.00;;;1.80;;
15043;SDS011;7619;48.562;8.910;2024-03-02T11:15:23;2.23;;;1.50;;
15043;SDS011;7619;48.562;8.910;2024-03-02T11:17:52;1.90;;;1.70;;
15043;SDS011;7619;48.562;8.910;2024-03-02T11:20:21;1.83;;;1.40;;
15043;SDS011;7619;48.562;8.910;2024-03-02T11:22:50;3.10;;;1.93;;
15043;SDS011;7619;48.562;8.910;2024-03-02T11:25:25;2.57;;;2.17;;
15043;SDS011;7619;48.562;8.910;2024-03-02T11:28:00;1.57;;;1.40;;
15043;SDS011;7619;48.562;8.910;2024-03-02T11:33:14;2.27;;;2.00;;
15043;SDS011;7619;48.562;8.910;2024-03-02T11:35:44;1.60;;;1.50;;
15043;SDS011;7619;48.562;8.910;2024-03-02T11:38:13;2.73;;;2.00;;
15043;SDS011;7619;48.562;8.910;2024-03-02T11:40:42;4.17;;;1.93;;
15043;SDS011;7619;48.562;8.910;2024-03-02T11:43:10;3.40;;;1.67;;
15043;SDS011;7619;48.562;8.910;2024-03-02T11:45:41;2.07;;;1.80;;
15043;SDS011;7619;48.562;8.910;2024-03-02T11:48:10;3.50;;;1.60;;
15043;SDS011;7619;48.562;8.910;2024-03-02T11:50:41;1.50;;;1.40;;
15043;SDS011;7619;48.562;8.910;2024-03-02T11:53:09;2.53;;;1.60;;
15043;SDS011;7619;48.562;8.910;2024-03-02T11:55:39;3.07;;;1.30;;
15043;SDS011;7619;48.562;8.910;2024-03-02T11:58:08;1.83;;;1.30;;
15043;SDS011;7619;48.562;8.910;2024-03-02T12:00:37;1.70;;;1.53;;
15043;SDS011;7619;48.562;8.910;2024-03-02T12:03:05;1.73;;;1.30;;
15043;SDS011;7619;48.562;8.910;2024-03-02T12:05:34;1.90;;;1.23;;
15043;SDS011;7619;48.562;8.910;2024-03-02T12:08:03;1.40;;;1.30;;
15043;SDS011;7619;48.562;8.910;2024-03-02T12:10:33;1.70;;;1.07;;
15043;SDS011;7619;48.562;8.910;2024-03-02T12:13:01;1.20;;;1.10;;
15043;SDS011;7619;48.562;8.910;2024-03-02T12:15:30;1.80;;;1.13;;
15043;SDS011;7619;48.562;8.910;2024-03-02T12:17:59;1.37;;;1.00;;
15043;SDS011;7619;48.562;8.910;2024-03-02T12:20:28;1.10;;;1.00;;
15043;SDS011;7619;48.562;8.910;2024-03-02T12:22:57;0.80;;;0.80;;
15043;SDS011;7619;48.562;8.910;2024-03-02T12:25:26;1.23;;;0.83;;
15043;SDS011;7619;48.562;8.910;2024-03-02T12:27:55;2.20;;;1.37;;
15043;SDS011;7619;48.562;8.910;2024-03-02T12:30:23;1.00;;;0.90;;
15043;SDS011;7619;48.562;8.910;2024-03-02T12:32:51;1.87;;;1.00;;
15043;SDS011;7619;48.562;8.910;2024-03-02T12:35:20;1.53;;;1.10;;
15043;SDS011;7619;48.562;8.910;2024-03-02T12:37:48;1.53;;;1.07;;
15043;SDS011;7619;48.562;8.910;2024-03-02T12:40:17;1.47;;;1.17;;
15043;SDS011;7619;48.562;8.910;2024-03-02T12:42:45;1.40;;;1.30;;
15043;SDS011;7619;48.562;8.910;2024-03-02T12:45:14;1.97;;;1.30;;
15043;SDS011;7619;48.562;8.910;2024-03-02T12:47:42;1.30;;;1.20;;
15043;SDS011;7619;48.562;8.910;2024-03-02T12:50:10;1.90;;;1.30;;
15043;SDS011;7619;48.562;8.910;2024-03-02T12:52:39;1.30;;;1.10;;
15043;SDS011;7619;48.562;8.910;2024-03-02T12:55:07;1.10;;;1.00;;
15043;SDS011;7619;48.562;8.910;2024-03-02T12:57:35;2.30;;;1.00;;
15043;SDS011;7619;48.562;8.910;2024-03-02T13:00:05;1.17;;;1.00;;
15043;SDS011;7619;48.562;8.910;2024-03-02T13:02:36;1.60;;;1.30;;
15043;SDS011;7619;48.562;8.910;2024-03-02T13:05:04;1.60;;;1.03;;
15043;SDS011;7619;48.562;8.910;2024-03-02T13:07:35;1.63;;;1.40;;
15043;SDS011;7619;48.562;8.910;2024-03-02T13:10:04;2.03;;;1.40;;
15043;SDS011;7619;48.562;8.910;2024-03-02T13:12:32;1.40;;;0.97;;
15043;SDS011;7619;48.562;8.910;2024-03-02T13:15:01;1.67;;;1.20;;
15043;SDS011;7619;48.562;8.910;2024-03-02T13:17:30;2.23;;;0.97;;
15043;SDS011;7619;48.562;8.910;2024-03-02T13:19:59;1.07;;;0.97;;
15043;SDS011;7619;48.562;8.910;2024-03-02T13:22:27;1.63;;;0.93;;
15043;SDS011;7619;48.562;8.910;2024-03-02T13:24:55;0.90;;;0.80;;
15043;SDS011;7619;48.562;8.910;2024-03-02T13:27:23;1.23;;;0.80;;
15043;SDS011;7619;48.562;8.910;2024-03-02T13:29:51;1.93;;;1.20;;
15043;SDS011;7619;48.562;8.910;2024-03-02T13:32:19;1.30;;;1.20;;
15043;SDS011;7619;48.562;8.910;2024-03-02T13:34:49;1.13;;;0.97;;
15043;SDS011;7619;48.562;8.910;2024-03-02T13:37:17;1.13;;;1.03;;
15043;SDS011;7619;48.562;8.910;2024-03-02T13:39:45;0.80;;;0.80;;
15043;SDS011;7619;48.562;8.910;2024-03-02T13:42:13;0.90;;;0.90;;
15043;SDS011;7619;48.562;8.910;2024-03-02T13:44:43;1.37;;;1.10;;
15043;SDS011;7619;48.562;8.910;2024-03-02T13:47:12;1.80;;;1.07;;
15043;SDS011;7619;48.562;8.910;2024-03-02T13:49:40;1.10;;;1.00;;
15043;SDS011;7619;48.562;8.910;2024-03-02T13:52:10;0.80;;;0.73;;
15043;SDS011;7619;48.562;8.910;2024-03-02T13:54:40;1.07;;;1.00;;
15043;SDS011;7619;48.562;8.910;2024-03-02T13:57:08;1.60;;;1.23;;
15043;SDS011;7619;48.562;8.910;2024-03-02T13:59:37;1.40;;;1.30;;
15043;SDS011;7619;48.562;8.910;2024-03-02T14:02:05;1.23;;;1.03;;
15043;SDS011;7619;48.562;8.910;2024-03-02T14:04:34;1.40;;;1.00;;
15043;SDS011;7619;48.562;8.910;2024-03-02T14:07:03;1.10;;;1.00;;
15043;SDS011;7619;48.562;8.910;2024-03-02T14:09:33;1.40;;;1.20;;
15043;SDS011;7619;48.562;8.910;2024-03-02T14:12:02;1.27;;;1.13;;
15043;SDS011;7619;48.562;8.910;2024-03-02T14:14:30;2.87;;;1.30;;
15043;SDS011;7619;48.562;8.910;2024-03-02T14:16:58;4.27;;;1.30;;
15043;SDS011;7619;48.562;8.910;2024-03-02T14:19:29;1.80;;;1.00;;
15043;SDS011;7619;48.562;8.910;2024-03-02T14:21:57;1.27;;;1.00;;
15043;SDS011;7619;48.562;8.910;2024-03-02T14:24:25;1.90;;;1.40;;
15043;SDS011;7619;48.562;8.910;2024-03-02T14:26:55;1.50;;;1.17;;
15043;SDS011;7619;48.562;8.910;2024-03-02T14:29:24;1.13;;;1.03;;
15043;SDS011;7619;48.562;8.910;2024-03-02T14:31:52;2.20;;;1.30;;
15043;SDS011;7619;48.562;8.910;2024-03-02T14:34:20;1.27;;;1.17;;
15043;SDS011;7619;48.562;8.910;2024-03-02T14:36:48;1.47;;;1.23;;
15043;SDS011;7619;48.562;8.910;2024-03-02T14:39:17;1.27;;;0.90;;
15043;SDS011;7619;48.562;8.910;2024-03-02T14:41:46;1.20;;;0.87;;
15043;SDS011;7619;48.562;8.910;2024-03-02T14:44:15;0.70;;;0.70;;
15043;SDS011;7619;48.562;8.910;2024-03-02T14:46:45;0.90;;;0.90;;
15043;SDS011;7619;48.562;8.910;2024-03-02T14:49:14;1.50;;;1.10;;
15043;SDS011;7619;48.562;8.910;2024-03-02T14:51:42;1.00;;;0.80;;
15043;SDS011;7619;48.562;8.910;2024-03-02T14:54:11;1.10;;;0.80;;
15043;SDS011;7619;48.562;8.910;2024-03-02T14:56:39;1.47;;;1.13;;
15043;SDS011;7619;48.562;8.910;2024-03-02T14:59:07;0.80;;;0.80;;
15043;SDS011;7619;48.562;8.910;2024-03-02T15:01:37;0.97;;;0.80;;
15043;SDS011;7619;48.562;8.910;2024-03-02T15:04:05;0.80;;;0.80;;
15043;SDS011;7619;48.562;8.910;2024-03-02T15:06:33;0.73;;;0.70;;
15043;SDS011;7619;48.562;8.910;2024-03-02T15:09:01;1.20;;;0.50;;